Time;durP1;ratioP1;P1;durP2;ratioP2;P2;SDS_P1;SDS_P2;PMS_P1;PMS_P2;Temp;Humidity;BMP_temperature;BMP_pressure;BME280_temperature;BME280_humidity;BME280_pressure;Samples;Min_cycle;Max_cycle;Signal;HPM_P1;HPM_P2
2021/04/29 04:50:09;;;;;;;10.10;6.10;;;;;;;;;;6243796;23;20020;-77
2021/04/29 04:52:35;;;;;;;10.18;6.32;;;;;;;;;;6242625;23;20103;-77
2021/04/29 04:55:00;;;;;;;9.00;5.97;;;;;;;;;;6247960;23;20004;-78
2021/04/29 04:57:26;;;;;;;10.50;5.75;;;;;;;;;;6241943;23;20088;-77
2021/04/29 04:59:52;;;;;;;9.60;6.82;;;;;;;;;;6232637;22;20012;-79
2021/04/29 05:02:18;;;;;;;9.45;6.53;;;;;;;;;;6210337;23;20398;-79
2021/04/29 05:04:43;;;;;;;9.80;5.95;;;;;;;;;;6212929;23;20071;-79
2021/04/29 05:07:12;;;;;;;8.50;5.65;;;;;;;;;;6212773;23;20080;-79
2021/04/29 05:09:38;;;;;;;9.05;6.43;;;;;;;;;;6212308;23;20001;-79
2021/04/29 05:12:04;;;;;;;8.18;5.45;;;;;;;;;;6212998;23;20004;-79
2021/04/29 05:14:30;;;;;;;12.57;6.68;;;;;;;;;;6212378;23;20027;-79
2021/04/29 05:16:56;;;;;;;9.52;6.57;;;;;;;;;;6212471;23;20004;-79
2021/04/29 05:19:22;;;;;;;10.52;6.75;;;;;;;;;;6212793;23;20449;-79
2021/04/29 05:21:48;;;;;;;8.80;6.47;;;;;;;;;;6213675;23;20005;-79
2021/04/29 05:24:13;;;;;;;9.40;5.68;;;;;;;;;;6212668;23;20006;-79
2021/04/29 05:26:39;;;;;;;11.38;6.78;;;;;;;;;;6212590;23;20120;-79
2021/04/29 05:29:07;;;;;;;10.80;7.28;;;;;;;;;;6213133;23;20035;-79
2021/04/29 05:31:32;;;;;;;9.38;6.20;;;;;;;;;;6213757;23;20007;-79
2021/04/29 05:33:58;;;;;;;9.88;6.75;;;;;;;;;;6213095;23;20064;-79
2021/04/29 05:36:24;;;;;;;11.52;6.43;;;;;;;;;;6213857;23;20398;-79
2021/04/29 05:38:49;;;;;;;9.32;5.72;;;;;;;;;;6213972;23;20330;-79
2021/04/29 05:41:16;;;;;;;9.90;6.68;;;;;;;;;;6213875;23;20015;-79
2021/04/29 05:43:42;;;;;;;8.43;5.93;;;;;;;;;;6215063;23;20004;-79
2021/04/29 05:46:07;;;;;;;13.00;7.72;;;;;;;;;;6213761;23;20096;-79
2021/04/29 05:48:33;;;;;;;12.10;8.90;;;;;;;;;;6214253;23;20007;-80
2021/04/29 05:50:59;;;;;;;16.23;10.27;;;;;;;;;;6214360;23;20084;-81
2021/04/29 05:53:24;;;;;;;11.25;7.95;;;;;;;;;;6216390;23;20010;-81
2021/04/29 05:55:50;;;;;;;9.38;6.60;;;;;;;;;;6217051;23;20000;-81
2021/04/29 05:58:16;;;;;;;8.68;5.97;;;;;;;;;;6214823;23;20095;-81
2021/04/29 06:00:41;;;;;;;7.63;5.10;;;;;;;;;;6214815;23;20091;-80
2021/04/29 06:03:07;;;;;;;8.20;5.20;;;;;;;;;;6216174;23;20083;-81
2021/04/29 06:05:33;;;;;;;7.20;4.30;;;;;;;;;;6216366;23;20075;-80
2021/04/29 06:07:59;;;;;;;7.55;5.18;;;;;;;;;;6214362;23;20012;-80
2021/04/29 06:10:26;;;;;;;9.05;5.45;;;;;;;;;;6214305;23;20064;-81
2021/04/29 06:12:51;;;;;;;8.32;5.32;;;;;;;;;;6214421;23;20001;-81
2021/04/29 06:15:18;;;;;;;7.30;5.07;;;;;;;;;;6214007;23;20059;-80
2021/04/29 06:17:43;;;;;;;7.90;5.47;;;;;;;;;;6214286;23;20068;-80
2021/04/29 06:20:10;;;;;;;8.38;5.00;;;;;;;;;;6218363;23;20072;-81
2021/04/29 06:24:54;;;;;;;6.78;5.13;;;;;;;;;;5132717;27;20350;-82
2021/04/29 06:27:19;;;;;;;7.93;5.15;;;;;;;;;;5126785;28;20567;-82
2021/04/29 06:29:45;;;;;;;7.18;4.35;;;;;;;;;;5135137;28;20047;-82
2021/04/29 06:32:10;;;;;;;9.57;5.30;;;;;;;;;;5117063;28;20091;-82
2021/04/29 06:34:36;;;;;;;11.00;5.30;;;;;;;;;;5130075;28;20094;-82
2021/04/29 06:37:02;;;;;;;8.02;4.65;;;;;;;;;;5118788;28;20539;-82
2021/04/29 06:39:28;;;;;;;7.43;4.90;;;;;;;;;;5123813;28;20383;-82
2021/04/29 06:41:53;;;;;;;6.80;4.55;;;;;;;;;;5121186;28;20019;-82
2021/04/29 06:44:19;;;;;;;6.88;4.25;;;;;;;;;;5125553;28;20027;-82
2021/04/29 06:46:45;;;;;;;6.60;5.18;;;;;;;;;;5128670;28;20027;-82
2021/04/29 06:49:11;;;;;;;5.72;4.22;;;;;;;;;;5122723;28;20053;-82
2021/04/29 06:51:36;;;;;;;8.13;5.30;;;;;;;;;;5127450;28;20425;-82
2021/04/29 06:54:03;;;;;;;7.00;5.13;;;;;;;;;;5118815;28;20015;-82
2021/04/29 06:56:28;;;;;;;8.18;5.05;;;;;;;;;;5115171;28;20024;-82
2021/04/29 06:58:54;;;;;;;8.43;5.30;;;;;;;;;;5119730;28;20391;-82
2021/04/29 07:01:20;;;;;;;9.57;6.00;;;;;;;;;;5126608;28;20110;-82
2021/04/29 07:03:45;;;;;;;13.63;7.40;;;;;;;;;;5124484;28;20028;-81
2021/04/29 07:06:11;;;;;;;10.40;7.68;;;;;;;;;;5115504;27;20058;-82
2021/04/29 07:08:36;;;;;;;15.85;8.95;;;;;;;;;;5123221;28;20030;-82
2021/04/29 07:11:03;;;;;;;12.43;9.85;;;;;;;;;;5118197;28;20446;-82
2021/04/29 07:13:29;;;;;;;10.93;7.43;;;;;;;;;;5124267;28;20024;-82
2021/04/29 07:15:54;;;;;;;10.13;6.80;;;;;;;;;;5115200;28;20030;-82
2021/04/29 07:18:20;;;;;;;8.45;5.20;;;;;;;;;;5125588;27;20111;-82
2021/04/29 07:20:46;;;;;;;8.13;5.20;;;;;;;;;;5109856;28;20028;-82
2021/04/29 07:23:11;;;;;;;8.27;5.05;;;;;;;;;;5107019;28;20027;-82
2021/04/29 07:25:37;;;;;;;8.68;6.30;;;;;;;;;;5110961;28;20031;-82
2021/04/29 07:28:04;;;;;;;7.88;5.43;;;;;;;;;;5121396;27;20050;-82
2021/04/29 07:30:31;;;;;;;8.20;6.28;;;;;;;;;;5120370;27;20077;-82
2021/04/29 07:32:57;;;;;;;8.98;5.43;;;;;;;;;;5123708;27;20028;-82
2021/04/29 07:35:22;;;;;;;10.38;6.22;;;;;;;;;;5110453;27;20469;-81
2021/04/29 07:37:49;;;;;;;8.57;6.20;;;;;;;;;;5110465;28;20031;-82
2021/04/29 07:40:15;;;;;;;8.88;5.78;;;;;;;;;;5099271;28;20248;-82
2021/04/29 07:42:41;;;;;;;10.07;5.95;;;;;;;;;;5108503;28;20024;-82
2021/04/29 07:45:07;;;;;;;8.73;5.53;;;;;;;;;;5103013;28;20024;-81
2021/04/29 07:47:32;;;;;;;9.73;5.80;;;;;;;;;;5108820;28;20016;-81
2021/04/29 07:49:58;;;;;;;8.40;5.38;;;;;;;;;;5106753;28;20374;-81
2021/04/29 07:52:24;;;;;;;7.85;4.53;;;;;;;;;;5110802;28;20024;-81
2021/04/29 07:54:50;;;;;;;8.80;6.38;;;;;;;;;;5107774;28;20028;-82
2021/04/29 07:57:16;;;;;;;7.80;5.68;;;;;;;;;;5104862;28;20011;-81
2021/04/29 07:59:41;;;;;;;8.70;5.80;;;;;;;;;;5100384;28;20066;-81
2021/04/29 08:02:07;;;;;;;11.73;5.82;;;;;;;;;;5106479;28;20679;-81
2021/04/29 08:04:33;;;;;;;8.32;6.00;;;;;;;;;;5095759;28;20034;-82
2021/04/29 08:06:59;;;;;;;10.32;6.13;;;;;;;;;;5098577;28;20024;-81
2021/04/29 08:09:24;;;;;;;8.45;6.03;;;;;;;;;;5107672;28;20020;-82
2021/04/29 08:11:51;;;;;;;10.32;6.63;;;;;;;;;;5101734;28;20077;-82
2021/04/29 08:14:16;;;;;;;11.00;6.07;;;;;;;;;;5112564;27;20383;-81
2021/04/29 08:16:42;;;;;;;7.03;5.78;;;;;;;;;;5089383;28;20024;-81
2021/04/29 08:19:08;;;;;;;8.85;6.43;;;;;;;;;;5094946;28;20109;-82
2021/04/29 08:21:33;;;;;;;9.00;6.32;;;;;;;;;;5088367;28;20024;-81
2021/04/29 08:23:59;;;;;;;12.15;7.43;;;;;;;;;;5102660;28;20020;-81
2021/04/29 08:26:25;;;;;;;10.10;7.22;;;;;;;;;;5102614;28;20520;-82
2021/04/29 08:28:51;;;;;;;9.27;7.15;;;;;;;;;;5104544;28;20019;-81
2021/04/29 08:31:17;;;;;;;10.18;7.80;;;;;;;;;;5101264;28;20027;-81
2021/04/29 08:33:42;;;;;;;11.13;7.55;;;;;;;;;;5096004;28;20027;-81
2021/04/29 08:36:08;;;;;;;13.30;8.02;;;;;;;;;;5097970;28;20062;-81
2021/04/29 08:38:34;;;;;;;12.13;7.65;;;;;;;;;;5102526;28;20011;-81
2021/04/29 08:41:00;;;;;;;14.27;11.15;;;;;;;;;;5098705;28;20031;-82
2021/04/29 08:43:26;;;;;;;14.82;9.55;;;;;;;;;;5105511;28;20027;-81
2021/04/29 08:45:51;;;;;;;11.43;8.32;;;;;;;;;;5097427;28;20475;-81
2021/04/29 08:48:21;;;;;;;12.15;8.73;;;;;;;;;;5103856;28;20030;-81
2021/04/29 08:50:47;;;;;;;14.63;9.75;;;;;;;;;;5105741;28;20070;-82
2021/04/29 08:53:12;;;;;;;16.17;8.90;;;;;;;;;;5105316;28;20023;-81
2021/04/29 08:55:38;;;;;;;12.32;9.55;;;;;;;;;;5097312;28;20024;-81
2021/04/29 08:58:04;;;;;;;13.07;9.07;;;;;;;;;;5100893;28;19909;-82
2021/04/29 09:00:30;;;;;;;13.68;9.20;;;;;;;;;;5105140;28;20383;-81
2021/04/29 09:02:56;;;;;;;17.35;8.95;;;;;;;;;;5104319;28;20023;-81
2021/04/29 09:05:24;;;;;;;12.27;8.77;;;;;;;;;;5091258;28;20020;-81
2021/04/29 09:07:52;;;;;;;13.30;8.65;;;;;;;;;;5107106;28;20028;-81
2021/04/29 09:10:22;;;;;;;19.15;11.73;;;;;;;;;;5098140;28;20016;-81
2021/04/29 09:12:48;;;;;;;14.52;8.63;;;;;;;;;;5109997;28;20023;-81
2021/04/29 09:15:27;;;;;;;15.48;9.55;;;;;;;;;;5098547;28;20354;-82
2021/04/29 09:18:07;;;;;;;12.32;7.63;;;;;;;;;;5109525;28;20028;-81
2021/04/29 09:20:32;;;;;;;10.40;7.00;;;;;;;;;;5095633;28;20387;-82
2021/04/29 09:22:59;;;;;;;14.13;8.57;;;;;;;;;;5098009;28;20031;-82
2021/04/29 09:25:25;;;;;;;10.48;7.57;;;;;;;;;;5100248;28;20020;-81
2021/04/29 09:27:54;;;;;;;12.38;7.93;;;;;;;;;;5096917;28;20023;-81
2021/04/29 09:30:23;;;;;;;11.63;6.82;;;;;;;;;;5104490;28;20020;-82
2021/04/29 09:32:49;;;;;;;11.85;7.65;;;;;;;;;;5098755;28;20052;-81
2021/04/29 09:35:21;;;;;;;12.77;6.63;;;;;;;;;;5106081;28;20391;-81
2021/04/29 09:37:47;;;;;;;14.10;6.97;;;;;;;;;;5097207;28;20024;-82
2021/04/29 09:42:36;;;;;;;9.15;5.93;;;;;;;;;;5116158;27;20435;-82
2021/04/29 09:45:04;;;;;;;9.27;5.88;;;;;;;;;;5112949;27;20089;-81
2021/04/29 09:47:30;;;;;;;10.60;6.10;;;;;;;;;;5102725;28;20016;-82
2021/04/29 09:49:55;;;;;;;11.45;6.18;;;;;;;;;;5105751;27;20069;-82
2021/04/29 09:52:25;;;;;;;9.20;5.70;;;;;;;;;;5096884;28;20035;-82
2021/04/29 09:54:52;;;;;;;9.07;6.05;;;;;;;;;;5100249;28;20024;-82
2021/04/29 09:57:24;;;;;;;10.75;6.47;;;;;;;;;;5105724;28;20396;-82
2021/04/29 10:00:01;;;;;;;10.40;5.80;;;;;;;;;;5107737;28;20051;-81
2021/04/29 10:02:28;;;;;;;11.70;6.70;;;;;;;;;;5109721;28;20016;-81
2021/04/29 10:04:54;;;;;;;14.85;6.53;;;;;;;;;;5106255;28;20077;-82
2021/04/29 10:09:38;;;;;;;8.02;5.28;;;;;;;;;;5088665;27;20372;-81
2021/04/29 10:12:11;;;;;;;9.35;4.75;;;;;;;;;;5088034;28;20063;-82
2021/04/29 10:14:40;;;;;;;9.10;5.90;;;;;;;;;;5083449;28;20028;-82
2021/04/29 10:17:06;;;;;;;7.88;5.22;;;;;;;;;;5084131;28;20020;-81
2021/04/29 10:19:33;;;;;;;8.80;6.07;;;;;;;;;;5083440;28;20034;-81
2021/04/29 10:21:59;;;;;;;7.95;5.57;;;;;;;;;;5085028;28;20020;-81
2021/04/29 10:24:25;;;;;;;10.00;6.40;;;;;;;;;;5087579;28;20441;-81
2021/04/29 10:26:59;;;;;;;9.05;5.68;;;;;;;;;;5084511;28;20032;-81
2021/04/29 10:29:25;;;;;;;9.25;6.50;;;;;;;;;;5088306;28;20040;-82
2021/04/29 10:31:55;;;;;;;8.75;5.75;;;;;;;;;;5082636;28;20136;-82
2021/04/29 10:34:21;;;;;;;11.70;6.40;;;;;;;;;;5081346;28;20016;-82
2021/04/29 10:36:47;;;;;;;11.73;6.65;;;;;;;;;;5086499;28;20089;-82
2021/04/29 10:39:15;;;;;;;10.10;5.20;;;;;;;;;;5090510;28;20054;-82
2021/04/29 10:41:42;;;;;;;8.18;5.22;;;;;;;;;;5084242;28;20036;-82
2021/04/29 10:44:11;;;;;;;8.05;4.63;;;;;;;;;;5084516;28;20039;-82
2021/04/29 10:46:39;;;;;;;9.40;5.28;;;;;;;;;;5083039;28;20021;-82
2021/04/29 10:49:05;;;;;;;8.05;4.85;;;;;;;;;;5089515;28;20026;-83
2021/04/29 10:51:37;;;;;;;9.52;4.97;;;;;;;;;;5089908;28;20028;-82
2021/04/29 10:54:12;;;;;;;7.60;4.95;;;;;;;;;;5082505;28;20069;-82
2021/04/29 10:56:38;;;;;;;11.50;5.78;;;;;;;;;;5087657;28;20046;-82
2021/04/29 10:59:12;;;;;;;7.70;4.88;;;;;;;;;;5083738;28;20059;-82
2021/04/29 11:01:46;;;;;;;8.30;5.20;;;;;;;;;;5153241;22;20051;-78
2021/04/29 11:04:16;;;;;;;7.45;5.90;;;;;;;;;;5112933;28;20068;-78
2021/04/29 11:06:43;;;;;;;9.95;4.90;;;;;;;;;;5106926;28;20020;-78
2021/04/29 11:09:16;;;;;;;8.15;5.15;;;;;;;;;;5111138;28;20562;-79
2021/04/29 11:11:41;;;;;;;9.48;5.38;;;;;;;;;;5099781;28;20055;-78
2021/04/29 11:14:09;;;;;;;9.20;4.07;;;;;;;;;;5104215;28;20027;-78
2021/04/29 11:16:44;;;;;;;8.52;4.28;;;;;;;;;;5105156;28;20019;-78
2021/04/29 11:19:20;;;;;;;7.63;4.38;;;;;;;;;;5077571;28;20500;-77
2021/04/29 11:21:46;;;;;;;8.15;4.18;;;;;;;;;;5090909;28;20039;-78
2021/04/29 11:24:12;;;;;;;6.32;4.13;;;;;;;;;;5092143;28;20024;-78
2021/04/29 11:26:38;;;;;;;13.27;6.97;;;;;;;;;;5094974;28;20104;-78
2021/04/29 11:29:04;;;;;;;8.07;4.65;;;;;;;;;;5092208;28;20020;-78
2021/04/29 11:31:37;;;;;;;9.35;5.18;;;;;;;;;;5094093;28;20024;-78
2021/04/29 11:34:03;;;;;;;8.93;5.43;;;;;;;;;;5096370;28;20016;-78
2021/04/29 11:36:30;;;;;;;7.75;4.18;;;;;;;;;;5092939;28;20023;-78
2021/04/29 11:38:56;;;;;;;17.48;9.73;;;;;;;;;;5094957;28;20107;-78
2021/04/29 11:41:23;;;;;;;7.45;4.68;;;;;;;;;;5093383;28;20047;-79
2021/04/29 11:44:05;;;;;;;7.38;3.25;;;;;;;;;;5094934;28;20020;-78
2021/04/29 11:46:31;;;;;;;9.13;3.63;;;;;;;;;;5079104;28;20031;-78
2021/04/29 11:48:58;;;;;;;10.68;4.90;;;;;;;;;;5092731;28;20024;-78
2021/04/29 11:51:24;;;;;;;8.23;4.25;;;;;;;;;;5089113;28;20016;-78
2021/04/29 11:53:50;;;;;;;7.75;4.68;;;;;;;;;;5096152;28;20020;-78
2021/04/29 11:56:16;;;;;;;6.03;3.47;;;;;;;;;;5091166;28;20486;-77
2021/04/29 11:58:42;;;;;;;8.73;5.20;;;;;;;;;;5092105;28;20034;-78
2021/04/29 12:01:14;;;;;;;8.13;5.25;;;;;;;;;;5090669;28;20043;-77
2021/04/29 12:03:40;;;;;;;6.80;4.35;;;;;;;;;;5071418;28;20052;-77
2021/04/29 12:06:06;;;;;;;7.00;3.97;;;;;;;;;;5077313;28;20051;-77
2021/04/29 12:08:33;;;;;;;7.70;3.92;;;;;;;;;;5091350;28;20029;-77
2021/04/29 12:11:00;;;;;;;7.22;3.58;;;;;;;;;;5094588;28;20099;-76
2021/04/29 12:13:32;;;;;;;8.32;3.72;;;;;;;;;;5091113;28;20012;-77
2021/04/29 12:15:59;;;;;;;7.25;4.03;;;;;;;;;;5092216;28;20012;-77
2021/04/29 12:18:25;;;;;;;7.13;3.72;;;;;;;;;;5069737;28;20031;-76
2021/04/29 12:20:51;;;;;;;5.70;3.30;;;;;;;;;;5083233;28;20563;-76
2021/04/29 12:23:17;;;;;;;8.48;4.10;;;;;;;;;;5087380;28;20031;-79
2021/04/29 12:25:54;;;;;;;6.47;3.53;;;;;;;;;;5085097;28;20028;-77
2021/04/29 12:28:20;;;;;;;5.47;3.08;;;;;;;;;;5070645;28;20426;-77
2021/04/29 12:30:46;;;;;;;6.25;3.15;;;;;;;;;;5089934;28;20017;-77
2021/04/29 12:33:16;;;;;;;6.05;3.47;;;;;;;;;;5089434;28;20039;-77
2021/04/29 12:35:42;;;;;;;5.70;3.38;;;;;;;;;;5090519;28;20054;-76
2021/04/29 12:38:07;;;;;;;4.82;3.25;;;;;;;;;;5087942;28;20020;-77
2021/04/29 12:40:34;;;;;;;6.93;4.22;;;;;;;;;;5092643;28;20039;-77
2021/04/29 12:43:10;;;;;;;6.72;4.13;;;;;;;;;;5087395;28;20024;-77
2021/04/29 12:45:46;;;;;;;6.03;3.70;;;;;;;;;;5062776;28;20144;-77
2021/04/29 12:48:11;;;;;;;6.38;3.00;;;;;;;;;;5072577;28;20028;-77
2021/04/29 12:50:37;;;;;;;7.80;3.15;;;;;;;;;;5087918;28;20357;-78
2021/04/29 12:53:03;;;;;;;5.40;3.17;;;;;;;;;;5072008;28;20027;-77
2021/04/29 12:55:29;;;;;;;8.82;3.83;;;;;;;;;;5083435;28;20031;-77
2021/04/29 12:58:04;;;;;;;8.18;3.50;;;;;;;;;;5089944;28;20020;-77
2021/04/29 13:00:30;;;;;;;7.53;3.42;;;;;;;;;;5089860;28;20020;-78
2021/04/29 13:03:02;;;;;;;6.28;3.72;;;;;;;;;;5085337;28;20035;-78
2021/04/29 13:05:28;;;;;;;9.32;4.65;;;;;;;;;;5074524;28;20036;-78
2021/04/29 13:07:57;;;;;;;9.32;4.53;;;;;;;;;;5087866;28;20044;-78
2021/04/29 13:10:23;;;;;;;8.10;4.78;;;;;;;;;;5085142;28;20062;-78
2021/04/29 13:12:49;;;;;;;9.45;5.30;;;;;;;;;;5064667;28;20111;-78
2021/04/29 13:15:15;;;;;;;7.32;5.35;;;;;;;;;;5087940;28;20472;-77
2021/04/29 13:17:41;;;;;;;11.27;5.70;;;;;;;;;;5086941;28;20020;-78
2021/04/29 13:20:08;;;;;;;9.43;5.80;;;;;;;;;;5088645;28;20020;-76
2021/04/29 13:22:34;;;;;;;8.10;5.75;;;;;;;;;;5084341;28;20495;-78
2021/04/29 13:25:02;;;;;;;12.73;6.80;;;;;;;;;;5081493;28;20074;-77
2021/04/29 13:27:28;;;;;;;9.82;6.18;;;;;;;;;;5089456;28;20515;-78
2021/04/29 13:29:54;;;;;;;7.65;5.40;;;;;;;;;;5088965;28;20059;-78
2021/04/29 13:32:19;;;;;;;7.95;5.20;;;;;;;;;;5085049;28;20070;-77
2021/04/29 13:34:46;;;;;;;6.82;3.65;;;;;;;;;;5087177;28;20046;-77
2021/04/29 13:37:12;;;;;;;8.77;4.20;;;;;;;;;;5065886;28;20034;-77
2021/04/29 13:39:38;;;;;;;5.10;3.72;;;;;;;;;;5085362;28;20023;-77
2021/04/29 13:42:03;;;;;;;6.55;4.35;;;;;;;;;;5085302;28;20103;-77
2021/04/29 13:44:29;;;;;;;9.85;3.63;;;;;;;;;;5093873;28;20069;-78
2021/04/29 13:46:55;;;;;;;6.45;3.45;;;;;;;;;;5072673;28;20120;-78
2021/04/29 13:49:20;;;;;;;7.03;3.42;;;;;;;;;;5091436;28;20017;-78
2021/04/29 13:51:46;;;;;;;9.18;3.17;;;;;;;;;;5090049;28;20014;-77
2021/04/29 13:54:12;;;;;;;5.15;2.90;;;;;;;;;;5087535;28;20051;-77
2021/04/29 13:56:38;;;;;;;6.85;3.03;;;;;;;;;;5086027;28;20625;-77
2021/04/29 13:59:04;;;;;;;6.18;3.22;;;;;;;;;;5085091;28;20077;-77
2021/04/29 14:01:30;;;;;;;6.18;2.65;;;;;;;;;;5087821;28;20031;-76
2021/04/29 14:03:56;;;;;;;5.22;2.85;;;;;;;;;;5069793;28;20059;-78
2021/04/29 14:06:22;;;;;;;6.85;2.45;;;;;;;;;;5068684;28;20035;-77
2021/04/29 14:08:52;;;;;;;5.25;2.88;;;;;;;;;;5067149;28;20020;-78
2021/04/29 14:11:18;;;;;;;5.55;2.17;;;;;;;;;;5076021;28;20380;-78
2021/04/29 14:13:43;;;;;;;4.13;2.60;;;;;;;;;;5090709;28;20020;-77
2021/04/29 14:16:09;;;;;;;5.63;2.42;;;;;;;;;;5092286;28;20101;-77
2021/04/29 14:18:35;;;;;;;6.20;2.13;;;;;;;;;;5093863;28;20115;-77
2021/04/29 14:21:00;;;;;;;5.93;2.63;;;;;;;;;;5092037;28;20024;-77
2021/04/29 14:23:26;;;;;;;4.95;2.30;;;;;;;;;;5089956;28;20024;-77
2021/04/29 14:25:52;;;;;;;4.72;2.08;;;;;;;;;;5064623;28;20407;-77
2021/04/29 14:28:17;;;;;;;4.55;2.60;;;;;;;;;;5092988;28;20028;-77
2021/04/29 14:30:43;;;;;;;6.32;2.83;;;;;;;;;;5092645;28;20123;-77
2021/04/29 14:33:09;;;;;;;7.38;2.72;;;;;;;;;;5088085;28;20020;-77
2021/04/29 14:35:35;;;;;;;4.38;2.22;;;;;;;;;;5090372;28;20027;-78
2021/04/29 14:38:00;;;;;;;6.70;3.03;;;;;;;;;;5070516;28;20089;-77
2021/04/29 14:40:26;;;;;;;4.20;2.50;;;;;;;;;;5084502;28;20468;-77
2021/04/29 14:42:52;;;;;;;5.95;2.60;;;;;;;;;;5088647;28;20449;-76
2021/04/29 14:45:19;;;;;;;3.92;2.15;;;;;;;;;;5080259;28;20112;-79
2021/04/29 14:47:46;;;;;;;5.57;2.33;;;;;;;;;;5087955;28;20028;-76
2021/04/29 14:50:13;;;;;;;4.95;2.30;;;;;;;;;;5083188;28;20039;-77
2021/04/29 14:52:38;;;;;;;6.75;2.40;;;;;;;;;;5085667;28;20020;-77
2021/04/29 14:55:05;;;;;;;3.20;2.10;;;;;;;;;;5085993;28;20030;-77
2021/04/29 14:57:31;;;;;;;5.22;2.10;;;;;;;;;;5094007;28;20078;-77
2021/04/29 14:59:56;;;;;;;6.03;2.60;;;;;;;;;;5090908;28;20024;-77
2021/04/29 15:02:23;;;;;;;4.00;2.13;;;;;;;;;;5089049;28;20016;-78
2021/04/29 15:04:49;;;;;;;3.75;2.08;;;;;;;;;;5089107;28;20020;-78
2021/04/29 15:07:15;;;;;;;3.65;2.03;;;;;;;;;;5093313;28;20031;-79
2021/04/29 15:09:41;;;;;;;11.13;2.20;;;;;;;;;;5088171;28;20408;-78
2021/04/29 15:12:07;;;;;;;4.28;2.25;;;;;;;;;;5086947;28;20044;-78
2021/04/29 15:16:50;;;;;;;8.02;3.17;;;;;;;;;;5103975;27;20383;-78
2021/04/29 15:19:16;;;;;;;4.45;2.50;;;;;;;;;;5096948;28;20024;-77
2021/04/29 15:21:42;;;;;;;6.05;3.08;;;;;;;;;;5099023;28;20472;-78
2021/04/29 15:24:08;;;;;;;4.53;2.80;;;;;;;;;;5094993;28;20325;-78
2021/04/29 15:26:34;;;;;;;4.95;2.45;;;;;;;;;;5092851;28;20384;-78
2021/04/29 15:29:01;;;;;;;7.43;2.90;;;;;;;;;;5086755;28;20063;-78
2021/04/29 15:31:27;;;;;;;6.38;2.70;;;;;;;;;;5094480;28;20609;-78
2021/04/29 15:33:53;;;;;;;6.25;2.55;;;;;;;;;;5093765;28;20048;-77
2021/04/29 15:36:19;;;;;;;7.82;2.97;;;;;;;;;;5093144;28;20103;-77
2021/04/29 15:38:45;;;;;;;4.85;2.70;;;;;;;;;;5093742;28;20047;-78
2021/04/29 15:43:29;;;;;;;7.43;3.42;;;;;;;;;;5113040;27;20912;-78
2021/04/29 15:45:57;;;;;;;7.28;3.78;;;;;;;;;;5110036;28;20028;-78
2021/04/29 15:48:26;;;;;;;5.10;3.15;;;;;;;;;;5106956;28;20023;-78
2021/04/29 15:50:59;;;;;;;6.70;3.10;;;;;;;;;;5099929;28;20028;-78
2021/04/29 15:53:25;;;;;;;9.52;3.67;;;;;;;;;;5094698;28;20028;-78
2021/04/29 15:55:51;;;;;;;9.13;4.10;;;;;;;;;;5097763;28;20061;-78
2021/04/29 15:58:17;;;;;;;6.88;4.10;;;;;;;;;;5096354;28;20052;-78
2021/04/29 16:00:43;;;;;;;7.75;3.30;;;;;;;;;;5092159;28;20088;-78
2021/04/29 16:03:09;;;;;;;5.57;3.75;;;;;;;;;;5094961;28;20620;-79
2021/04/29 16:05:34;;;;;;;7.70;4.00;;;;;;;;;;5097490;28;20039;-78
2021/04/29 16:08:00;;;;;;;8.35;4.30;;;;;;;;;;5100803;28;20077;-78
2021/04/29 16:10:26;;;;;;;9.18;4.03;;;;;;;;;;5103237;28;20069;-78
2021/04/29 16:12:52;;;;;;;5.70;4.03;;;;;;;;;;5096920;28;20020;-78
2021/04/29 16:15:18;;;;;;;9.30;4.38;;;;;;;;;;5100263;28;20099;-78
2021/04/29 16:17:44;;;;;;;6.68;4.53;;;;;;;;;;5095009;28;20480;-77
2021/04/29 16:20:10;;;;;;;8.50;3.75;;;;;;;;;;5095793;28;20030;-77
2021/04/29 16:22:36;;;;;;;8.55;4.03;;;;;;;;;;5096061;28;20417;-78
2021/04/29 16:25:02;;;;;;;10.00;4.88;;;;;;;;;;5094650;28;20747;-78
2021/04/29 16:27:28;;;;;;;8.68;4.68;;;;;;;;;;5096258;28;20052;-78
2021/04/29 16:32:13;;;;;;;7.68;4.40;;;;;;;;;;5113797;27;20352;-79
2021/04/29 16:34:39;;;;;;;8.13;4.18;;;;;;;;;;5110452;28;20071;-77
2021/04/29 16:37:04;;;;;;;5.72;3.60;;;;;;;;;;5103370;28;20012;-77
2021/04/29 16:39:30;;;;;;;8.13;3.92;;;;;;;;;;5103168;28;20482;-77
2021/04/29 16:41:56;;;;;;;6.95;3.33;;;;;;;;;;5092630;28;20391;-78
2021/04/29 16:44:21;;;;;;;6.85;4.15;;;;;;;;;;5103589;28;20107;-78
2021/04/29 16:46:47;;;;;;;8.32;4.25;;;;;;;;;;5095076;28;20024;-78
2021/04/29 16:49:13;;;;;;;7.75;4.57;;;;;;;;;;5096949;28;20016;-78
2021/04/29 16:51:38;;;;;;;8.88;4.63;;;;;;;;;;5096391;28;20574;-78
2021/04/29 16:54:04;;;;;;;9.07;5.55;;;;;;;;;;5097880;28;20083;-77
2021/04/29 16:56:30;;;;;;;8.85;5.32;;;;;;;;;;5105110;28;20357;-78
2021/04/29 16:58:56;;;;;;;8.75;5.18;;;;;;;;;;5097582;28;20107;-78
2021/04/29 17:01:21;;;;;;;12.65;5.20;;;;;;;;;;5103643;22;20487;-77
2021/04/29 17:03:47;;;;;;;11.00;6.10;;;;;;;;;;5091401;28;20028;-78
2021/04/29 17:08:31;;;;;;;8.05;5.07;;;;;;;;;;5090094;27;20787;-79
2021/04/29 17:10:57;;;;;;;8.25;5.25;;;;;;;;;;5073944;28;20031;-79
2021/04/29 17:13:23;;;;;;;10.93;5.45;;;;;;;;;;5074062;28;20809;-78
2021/04/29 17:15:48;;;;;;;9.98;6.13;;;;;;;;;;5070522;28;20016;-78
2021/04/29 17:20:35;;;;;;;7.03;4.90;;;;;;;;;;5104153;27;20363;-77
2021/04/29 17:23:00;;;;;;;7.18;4.88;;;;;;;;;;5094729;28;20063;-77
2021/04/29 17:25:27;;;;;;;9.68;5.50;;;;;;;;;;5093299;28;20024;-75
2021/04/29 17:27:52;;;;;;;7.88;4.90;;;;;;;;;;5096491;28;20043;-78
2021/04/29 17:30:19;;;;;;;10.73;5.25;;;;;;;;;;5103864;28;20076;-78
2021/04/29 17:32:46;;;;;;;13.90;6.00;;;;;;;;;;5100016;28;20032;-76
2021/04/29 17:35:12;;;;;;;11.55;5.38;;;;;;;;;;5112421;28;20022;-78
2021/04/29 17:37:37;;;;;;;9.10;5.53;;;;;;;;;;5100160;28;20075;-78
2021/04/29 17:40:05;;;;;;;9.88;6.13;;;;;;;;;;5106208;28;20069;-77
2021/04/29 17:42:30;;;;;;;10.88;5.93;;;;;;;;;;5105001;28;20059;-76
2021/04/29 17:44:56;;;;;;;9.70;6.20;;;;;;;;;;5097302;28;20039;-78
2021/04/29 17:47:22;;;;;;;13.90;7.07;;;;;;;;;;5103489;28;20032;-76
2021/04/29 17:49:47;;;;;;;11.38;7.18;;;;;;;;;;5105314;28;20035;-78
2021/04/29 17:52:13;;;;;;;12.73;5.32;;;;;;;;;;5108021;28;20103;-77
2021/04/29 17:54:39;;;;;;;11.13;5.32;;;;;;;;;;5101631;28;20026;-77
2021/04/29 17:57:06;;;;;;;9.93;6.60;;;;;;;;;;5095073;28;20016;-78
2021/04/29 17:59:32;;;;;;;10.23;6.32;;;;;;;;;;5092763;28;20089;-76
2021/04/29 18:01:57;;;;;;;11.65;5.63;;;;;;;;;;5089420;28;20028;-78
2021/04/29 18:04:23;;;;;;;7.82;5.35;;;;;;;;;;5096001;28;20032;-76
2021/04/29 18:06:49;;;;;;;6.43;4.50;;;;;;;;;;5090763;28;20030;-78
2021/04/29 18:09:15;;;;;;;10.20;5.60;;;;;;;;;;5091270;28;20016;-78
2021/04/29 18:11:40;;;;;;;12.15;5.47;;;;;;;;;;5098406;28;20082;-78
2021/04/29 18:14:06;;;;;;;8.25;4.93;;;;;;;;;;5097042;28;19916;-78
2021/04/29 18:16:32;;;;;;;10.23;4.80;;;;;;;;;;5099794;28;20031;-77
2021/04/29 18:18:57;;;;;;;9.57;5.35;;;;;;;;;;5094376;28;20027;-78
2021/04/29 18:21:23;;;;;;;7.57;3.90;;;;;;;;;;5097949;28;20804;-77
2021/04/29 18:23:49;;;;;;;14.55;5.90;;;;;;;;;;5093701;28;20012;-77
2021/04/29 18:26:14;;;;;;;8.95;5.15;;;;;;;;;;5094679;28;20095;-78
2021/04/29 18:28:40;;;;;;;7.60;5.25;;;;;;;;;;5096522;28;20027;-78
2021/04/29 18:31:06;;;;;;;10.93;5.90;;;;;;;;;;5088426;28;20438;-77
2021/04/29 18:33:33;;;;;;;11.45;4.97;;;;;;;;;;5086358;28;20049;-78
2021/04/29 18:35:58;;;;;;;9.27;4.70;;;;;;;;;;5086399;28;20533;-77
2021/04/29 18:38:27;;;;;;;10.23;5.30;;;;;;;;;;5080087;28;20032;-77
2021/04/29 18:40:53;;;;;;;9.80;5.60;;;;;;;;;;5077132;28;20028;-76
2021/04/29 18:43:19;;;;;;;9.45;5.85;;;;;;;;;;5080081;28;20020;-77
2021/04/29 18:45:50;;;;;;;8.90;4.72;;;;;;;;;;5078473;28;20021;-76
2021/04/29 18:48:17;;;;;;;8.60;5.30;;;;;;;;;;5081639;28;20016;-77
2021/04/29 18:50:43;;;;;;;9.07;5.00;;;;;;;;;;5076363;28;20031;-77
2021/04/29 18:53:09;;;;;;;9.00;4.72;;;;;;;;;;5079025;28;20047;-77
2021/04/29 18:55:35;;;;;;;7.78;3.72;;;;;;;;;;5073684;28;20024;-77
2021/04/29 18:58:00;;;;;;;10.13;4.55;;;;;;;;;;5079774;28;20031;-78
2021/04/29 19:00:26;;;;;;;8.82;5.22;;;;;;;;;;5076172;28;20032;-78
2021/04/29 19:02:52;;;;;;;6.47;3.97;;;;;;;;;;5077444;28;20032;-78
2021/04/29 19:05:18;;;;;;;8.57;4.50;;;;;;;;;;5086484;28;20707;-78
2021/04/29 19:07:43;;;;;;;6.53;4.03;;;;;;;;;;5081137;28;20016;-77
2021/04/29 19:10:11;;;;;;;6.93;3.95;;;;;;;;;;5083443;28;20437;-75
2021/04/29 19:12:37;;;;;;;5.82;3.40;;;;;;;;;;5083260;28;20059;-76
2021/04/29 19:15:14;;;;;;;10.15;3.90;;;;;;;;;;5074059;28;20402;-77
2021/04/29 19:17:40;;;;;;;6.50;3.70;;;;;;;;;;5075712;28;20028;-75
2021/04/29 19:20:06;;;;;;;8.45;5.15;;;;;;;;;;5076711;28;20020;-75
2021/04/29 19:22:32;;;;;;;8.15;5.35;;;;;;;;;;5072912;28;20043;-75
2021/04/29 19:24:57;;;;;;;17.33;9.52;;;;;;;;;;5074929;28;20052;-78
2021/04/29 19:27:23;;;;;;;19.92;11.48;;;;;;;;;;5075974;28;20031;-76
2021/04/29 19:29:49;;;;;;;15.95;10.85;;;;;;;;;;5073361;28;20739;-78
2021/04/29 19:32:15;;;;;;;13.38;8.48;;;;;;;;;;5078455;28;20034;-77
2021/04/29 19:34:40;;;;;;;16.77;8.60;;;;;;;;;;5079322;28;20024;-78
2021/04/29 19:37:06;;;;;;;12.30;8.50;;;;;;;;;;5078769;28;20029;-78
2021/04/29 19:39:32;;;;;;;14.73;7.10;;;;;;;;;;5073773;28;20024;-77
2021/04/29 19:41:58;;;;;;;8.07;4.60;;;;;;;;;;5072680;28;20028;-76